Wetterstation Vordersexau
Wetterdaten: Woche 15.02.16 - 21.02.16 (KW7)
Datum Zeit Temp. A. Feuchte A. Luftdruck Regen Wind Richtung Taupunkt Windchill Windben
15.02.2016 00:00 4,6 C 88 % 997,7 hPa 0,0 l/m 0,0 km/h W-NW 2,8 C 4,6 C 0,0 km/h
15.02.2016 01:00 4,7 C 87 % 998,0 hPa 0,0 l/m 0,0 km/h S 2,7 C 4,7 C 0,0 km/h
15.02.2016 02:00 4,8 C 87 % 998,8 hPa 0,0 l/m 0,0 km/h N-NO 2,8 C 4,8 C 0,0 km/h
15.02.2016 03:00 4,9 C 87 % 999,6 hPa 0,0 l/m 0,0 km/h N-NO 2,9 C 4,9 C 0,0 km/h
15.02.2016 04:00 4,6 C 88 % 1000,4 hPa 0,0 l/m 0,0 km/h N 2,8 C 4,6 C 0,0 km/h
15.02.2016 05:00 4,4 C 88 % 1001,4 hPa 0,0 l/m 0,0 km/h N 2,6 C 4,4 C 0,0 km/h
15.02.2016 06:00 3,9 C 87 % 1002,5 hPa 0,0 l/m 0,0 km/h N-NO 1,9 C 3,9 C 0,0 km/h
15.02.2016 07:00 2,9 C 88 % 1003,8 hPa 1,2 l/m 0,0 km/h NO 1,1 C 2,9 C 0,0 km/h
15.02.2016 08:00 2,6 C 88 % 1005,1 hPa 0,4 l/m 0,0 km/h NO 0,8 C 2,6 C 0,0 km/h
15.02.2016 09:00 2,9 C 89 % 1006,5 hPa 0,4 l/m 0,0 km/h W 1,3 C 2,9 C 0,0 km/h
15.02.2016 10:00 2,9 C 89 % 1007,8 hPa 0,4 l/m 0,0 km/h N-NO 1,3 C 2,9 C 0,0 km/h
15.02.2016 11:00 2,9 C 89 % 1009,3 hPa 0,0 l/m 0,0 km/h NO 1,3 C 2,9 C 0,0 km/h
15.02.2016 12:00 3,0 C 88 % 1010,3 hPa 0,0 l/m 0,0 km/h N-NO 1,2 C 3,0 C 0,0 km/h
15.02.2016 13:00 3,9 C 87 % 1011,1 hPa 0,0 l/m 0,0 km/h NO 1,9 C 3,9 C 0,0 km/h
15.02.2016 14:00 3,8 C 85 % 1012,3 hPa 0,0 l/m 0,0 km/h NO 1,5 C 3,8 C 0,0 km/h
15.02.2016 15:00 3,9 C 85 % 1013,1 hPa 0,0 l/m 0,0 km/h NO 1,6 C 3,9 C 0,0 km/h
15.02.2016 16:00 3,6 C 84 % 1014,3 hPa 0,0 l/m 0,0 km/h NO 1,2 C 3,6 C 0,0 km/h
15.02.2016 17:00 3,2 C 85 % 1015,8 hPa 0,0 l/m 0,0 km/h NO 0,9 C 3,2 C 0,0 km/h
15.02.2016 18:00 2,8 C 86 % 1017,3 hPa 0,0 l/m 0,0 km/h NO 0,7 C 2,8 C 0,0 km/h
15.02.2016 19:00 2,7 C 86 % 1018,3 hPa 0,0 l/m 0,0 km/h NO 0,6 C 2,7 C 0,0 km/h
15.02.2016 20:00 2,9 C 87 % 1018,9 hPa 0,0 l/m 0,0 km/h N 1,0 C 2,9 C 0,0 km/h
15.02.2016 21:00 2,8 C 88 % 1019,8 hPa 0,0 l/m 0,0 km/h NO 1,0 C 2,8 C 0,0 km/h
15.02.2016 22:00 2,9 C 88 % 1020,5 hPa 0,0 l/m 0,0 km/h NO 1,1 C 2,9 C 0,0 km/h
15.02.2016 23:00 2,9 C 88 % 1021,7 hPa 0,0 l/m 0,0 km/h NO 1,1 C 2,9 C 0,0 km/h
16.02.2016 00:00 2,8 C 87 % 1023,2 hPa 0,0 l/m 0,0 km/h NO 0,9 C 2,8 C 0,0 km/h
16.02.2016 01:00 2,5 C 86 % 1023,8 hPa 0,0 l/m 0,0 km/h NO 0,4 C 2,5 C 0,0 km/h
16.02.2016 02:00 2,4 C 86 % 1024,4 hPa 0,0 l/m 0,0 km/h NO 0,3 C 2,4 C 0,0 km/h
16.02.2016 03:00 2,4 C 85 % 1024,7 hPa 0,0 l/m 0,0 km/h NO 0,1 C 2,4 C 0,0 km/h
16.02.2016 04:00 2,4 C 86 % 1025,0 hPa 0,0 l/m 0,0 km/h NO 0,3 C 2,4 C 0,0 km/h
16.02.2016 05:00 2,1 C 86 % 1025,7 hPa 0,0 l/m 9,7 km/h NO 0,0 C -0,9 C 5,4 km/h
16.02.2016 06:00 1,9 C 86 % 1026,1 hPa 0,0 l/m 0,0 km/h NO -0,2 C 1,9 C 0,0 km/h
16.02.2016 07:00 1,8 C 87 % 1026,7 hPa 0,0 l/m 0,0 km/h N-NO -0,1 C 1,8 C 0,0 km/h
16.02.2016 08:00 1,9 C 87 % 1027,3 hPa 0,0 l/m 0,0 km/h N-NO -0,0 C 1,9 C 0,0 km/h
16.02.2016 09:00 2,5 C 86 % 1027,6 hPa 0,0 l/m 0,0 km/h NO 0,4 C 2,5 C 0,0 km/h
16.02.2016 10:00 4,4 C 83 % 1027,9 hPa 0,0 l/m 0,0 km/h N-NO 1,8 C 4,4 C 0,0 km/h
16.02.2016 11:00 3,9 C 80 % 1028,3 hPa 0,0 l/m 4,5 km/h NO 0,8 C 3,9 C 2,5 km/h
16.02.2016 12:00 4,9 C 75 % 1028,0 hPa 0,0 l/m 6,5 km/h O-NO 0,8 C 4,8 C 3,6 km/h
16.02.2016 13:00 5,5 C 74 % 1027,5 hPa 0,0 l/m 0,0 km/h NO 1,2 C 5,5 C 0,0 km/h
16.02.2016 14:00 5,3 C 72 % 1027,4 hPa 0,0 l/m 8,4 km/h NO 0,7 C 3,6 C 4,7 km/h
16.02.2016 15:00 4,5 C 73 % 1027,4 hPa 0,0 l/m 0,0 km/h NO 0,1 C 4,5 C 0,0 km/h
16.02.2016 16:00 4,3 C 74 % 1027,2 hPa 0,0 l/m 1,9 km/h N-NO 0,1 C 4,3 C 1,1 km/h
16.02.2016 17:00 3,4 C 75 % 1027,0 hPa 0,0 l/m 0,0 km/h N-NO -0,6 C 3,4 C 0,0 km/h
16.02.2016 18:00 3,2 C 76 % 1027,3 hPa 0,0 l/m 0,0 km/h NO -0,6 C 3,2 C 0,0 km/h
16.02.2016 19:00 3,0 C 77 % 1027,1 hPa 0,0 l/m 0,0 km/h NO -0,6 C 3,0 C 0,0 km/h
16.02.2016 20:00 3,0 C 78 % 1026,3 hPa 0,0 l/m 20,7 km/h NO -0,5 C -6,0 C 11,5 km/h
16.02.2016 21:00 3,0 C 78 % 1025,6 hPa 0,0 l/m 22,0 km/h NO -0,5 C -6,6 C 12,2 km/h
16.02.2016 22:00 2,5 C 80 % 1025,2 hPa 0,0 l/m 3,2 km/h NO -0,6 C 2,5 C 1,8 km/h
16.02.2016 23:00 2,4 C 81 % 1024,3 hPa 0,0 l/m 3,9 km/h NO -0,5 C 2,4 C 2,2 km/h
17.02.2016 00:00 2,4 C 81 % 1023,4 hPa 0,0 l/m 11,7 km/h NO -0,5 C -2,0 C 6,5 km/h
17.02.2016 01:00 2,2 C 82 % 1022,2 hPa 0,0 l/m 0,0 km/h NO -0,5 C 2,2 C 0,0 km/h
17.02.2016 02:00 2,1 C 82 % 1021,8 hPa 0,0 l/m 0,0 km/h W-NW -0,6 C 2,1 C 0,0 km/h
17.02.2016 03:00 1,3 C 84 % 1021,3 hPa 0,0 l/m 0,0 km/h W-NW -1,1 C 1,3 C 0,0 km/h
17.02.2016 04:00 0,8 C 85 % 1020,5 hPa 0,0 l/m 0,0 km/h W-NW -1,4 C 0,8 C 0,0 km/h
17.02.2016 05:00 0,5 C 86 % 1020,2 hPa 0,0 l/m 0,0 km/h W-NW -1,6 C 0,5 C 0,0 km/h
17.02.2016 06:00 0,3 C 87 % 1019,6 hPa 0,0 l/m 0,0 km/h W-NW -1,6 C 0,3 C 0,0 km/h
17.02.2016 07:00 0,2 C 87 % 1018,7 hPa 0,0 l/m 0,0 km/h W-NW -1,7 C 0,2 C 0,0 km/h
17.02.2016 08:00 0,4 C 87 % 1018,1 hPa 0,0 l/m 0,0 km/h W-NW -1,5 C 0,4 C 0,0 km/h
17.02.2016 09:00 0,8 C 87 % 1017,6 hPa 0,0 l/m 0,0 km/h NW -1,1 C 0,8 C 0,0 km/h
17.02.2016 10:00 1,4 C 87 % 1016,6 hPa 0,0 l/m 0,0 km/h W -0,5 C 1,4 C 0,0 km/h
17.02.2016 11:00 1,9 C 87 % 1016,4 hPa 0,0 l/m 0,6 km/h W -0,0 C 1,9 C 0,4 km/h
17.02.2016 12:00 2,1 C 86 % 1015,5 hPa 0,0 l/m 0,0 km/h W 0,0 C 2,1 C 0,0 km/h
17.02.2016 13:00 2,3 C 85 % 1015,0 hPa 0,0 l/m 0,0 km/h S-SW 0,0 C 2,3 C 0,0 km/h
17.02.2016 14:00 2,5 C 85 % 1014,2 hPa 0,0 l/m 0,0 km/h W 0,2 C 2,5 C 0,0 km/h
17.02.2016 15:00 2,9 C 84 % 1014,0 hPa 0,0 l/m 0,0 km/h W 0,5 C 2,9 C 0,0 km/h
17.02.2016 16:00 2,8 C 84 % 1013,5 hPa 0,0 l/m 0,0 km/h W 0,4 C 2,8 C 0,0 km/h
17.02.2016 17:00 2,1 C 85 % 1013,6 hPa 0,0 l/m 0,0 km/h W -0,2 C 2,1 C 0,0 km/h
17.02.2016 18:00 1,9 C 86 % 1013,7 hPa 0,0 l/m 0,0 km/h W -0,2 C 1,9 C 0,0 km/h
17.02.2016 19:00 1,6 C 85 % 1013,5 hPa 0,0 l/m 0,0 km/h W -0,6 C 1,6 C 0,0 km/h
17.02.2016 20:00 1,6 C 86 % 1013,6 hPa 0,0 l/m 0,0 km/h W -0,5 C 1,6 C 0,0 km/h
17.02.2016 21:00 1,6 C 87 % 1013,4 hPa 0,0 l/m 0,0 km/h W -0,3 C 1,6 C 0,0 km/h
17.02.2016 22:00 1,6 C 87 % 1013,5 hPa 0,0 l/m 0,0 km/h W -0,3 C 1,6 C 0,0 km/h
17.02.2016 23:00 1,8 C 87 % 1014,0 hPa 0,0 l/m 0,0 km/h S-SO -0,1 C 1,8 C 0,0 km/h
18.02.2016 00:00 2,1 C 88 % 1014,0 hPa 0,0 l/m 0,0 km/h S-SO 0,3 C 2,1 C 0,0 km/h
18.02.2016 01:00 2,4 C 87 % 1013,5 hPa 0,0 l/m 0,0 km/h SW 0,5 C 2,4 C 0,0 km/h
18.02.2016 02:00 2,3 C 87 % 1013,3 hPa 0,0 l/m 0,0 km/h SW 0,4 C 2,3 C 0,0 km/h
18.02.2016 03:00 2,1 C 87 % 1013,0 hPa 0,0 l/m 0,0 km/h SW 0,2 C 2,1 C 0,0 km/h
18.02.2016 04:00 2,1 C 88 % 1012,8 hPa 0,0 l/m 0,0 km/h S-SW 0,3 C 2,1 C 0,0 km/h
18.02.2016 05:00 1,8 C 88 % 1012,6 hPa 0,0 l/m 0,0 km/h SW 0,0 C 1,8 C 0,0 km/h
18.02.2016 06:00 1,9 C 88 % 1012,6 hPa 0,0 l/m 0,0 km/h S-SW 0,1 C 1,9 C 0,0 km/h
18.02.2016 07:00 1,7 C 88 % 1013,0 hPa 0,0 l/m 0,0 km/h S -0,1 C 1,7 C 0,0 km/h
18.02.2016 08:00 3,1 C 88 % 1013,4 hPa 0,0 l/m 0,0 km/h S-SO 1,3 C 3,1 C 0,0 km/h
18.02.2016 09:00 7,8 C 82 % 1013,6 hPa 0,0 l/m 0,6 km/h S-SW 4,9 C 7,8 C 0,4 km/h
18.02.2016 10:00 8,3 C 74 % 1013,4 hPa 0,0 l/m 0,0 km/h W 3,9 C 8,3 C 0,0 km/h
18.02.2016 11:00 10,9 C 63 % 1013,2 hPa 0,0 l/m 0,0 km/h NW 4,1 C 10,9 C 0,0 km/h
18.02.2016 12:00 11,3 C 60 % 1013,1 hPa 0,0 l/m 6,5 km/h W 3,8 C 11,3 C 3,6 km/h
18.02.2016 13:00 9,3 C 62 % 1012,6 hPa 0,0 l/m 3,2 km/h W 2,4 C 9,3 C 1,8 km/h
18.02.2016 14:00 10,4 C 56 % 1012,4 hPa 0,0 l/m 7,8 km/h W 2,0 C 9,4 C 4,3 km/h
18.02.2016 15:00 10,2 C 59 % 1012,4 hPa 0,0 l/m 2,6 km/h W-NW 2,6 C 10,2 C 1,4 km/h
18.02.2016 16:00 9,4 C 63 % 1012,7 hPa 0,0 l/m 0,0 km/h W-NW 2,7 C 9,4 C 0,0 km/h
18.02.2016 17:00 5,6 C 67 % 1012,6 hPa 0,0 l/m 0,0 km/h W-NW -0,0 C 5,6 C 0,0 km/h
18.02.2016 18:00 3,0 C 76 % 1013,1 hPa 0,0 l/m 0,0 km/h S -0,8 C 3,0 C 0,0 km/h
18.02.2016 19:00 3,3 C 80 % 1013,3 hPa 0,0 l/m 0,0 km/h S 0,2 C 3,3 C 0,0 km/h
18.02.2016 20:00 3,3 C 81 % 1013,5 hPa 0,0 l/m 0,0 km/h O-SO 0,4 C 3,3 C 0,0 km/h
18.02.2016 21:00 3,8 C 82 % 1014,3 hPa 0,0 l/m 0,0 km/h SO 1,0 C 3,8 C 0,0 km/h
18.02.2016 22:00 3,6 C 85 % 1014,4 hPa 0,0 l/m 0,0 km/h SO 1,3 C 3,6 C 0,0 km/h
18.02.2016 23:00 3,4 C 86 % 1014,5 hPa 0,4 l/m 0,0 km/h SO 1,3 C 3,4 C 0,0 km/h
19.02.2016 00:00 3,4 C 87 % 1015,0 hPa 0,4 l/m 0,0 km/h NO 1,4 C 3,4 C 0,0 km/h
19.02.2016 01:00 2,6 C 88 % 1015,6 hPa 0,8 l/m 7,1 km/h NO 0,8 C 1,9 C 4,0 km/h
19.02.2016 02:00 1,8 C 88 % 1015,9 hPa 0,8 l/m 0,0 km/h NO 0,0 C 1,8 C 0,0 km/h
19.02.2016 03:00 1,7 C 88 % 1015,8 hPa 0,0 l/m 0,0 km/h SO -0,1 C 1,7 C 0,0 km/h
19.02.2016 04:00 2,1 C 88 % 1016,1 hPa 0,0 l/m 0,0 km/h SO 0,3 C 2,1 C 0,0 km/h
19.02.2016 05:00 2,1 C 88 % 1016,6 hPa 0,0 l/m 0,0 km/h SO 0,3 C 2,1 C 0,0 km/h
19.02.2016 06:00 2,3 C 88 % 1016,9 hPa 0,0 l/m 0,0 km/h SW 0,5 C 2,3 C 0,0 km/h
19.02.2016 07:00 3,0 C 88 % 1017,5 hPa 0,0 l/m 5,8 km/h W 1,2 C 3,0 C 3,2 km/h
19.02.2016 08:00 3,1 C 88 % 1018,3 hPa 0,0 l/m 9,7 km/h NW 1,3 C 0,2 C 5,4 km/h
19.02.2016 09:00 3,6 C 87 % 1019,0 hPa 0,0 l/m 24,0 km/h W 1,6 C -6,5 C 13,3 km/h
19.02.2016 10:00 3,7 C 87 % 1019,8 hPa 0,0 l/m 5,8 km/h W 1,7 C 3,7 C 3,2 km/h
19.02.2016 11:00 4,2 C 85 % 1020,5 hPa 0,0 l/m 5,8 km/h W-NW 1,9 C 4,2 C 3,2 km/h
19.02.2016 12:00 4,8 C 77 % 1020,6 hPa 0,0 l/m 4,5 km/h N-NO 1,1 C 4,8 C 2,5 km/h
19.02.2016 13:00 4,4 C 76 % 1021,1 hPa 0,0 l/m 0,0 km/h N-NO 0,5 C 4,4 C 0,0 km/h
19.02.2016 14:00 3,6 C 82 % 1021,6 hPa 0,4 l/m 0,0 km/h SO 0,8 C 3,6 C 0,0 km/h
19.02.2016 15:00 4,1 C 83 % 1022,0 hPa 0,0 l/m 0,0 km/h SO 1,5 C 4,1 C 0,0 km/h
19.02.2016 16:00 3,4 C 84 % 1021,8 hPa 0,0 l/m 3,9 km/h SO 1,0 C 3,4 C 2,2 km/h
19.02.2016 17:00 3,2 C 82 % 1021,5 hPa 0,0 l/m 0,0 km/h O-SO 0,4 C 3,2 C 0,0 km/h
19.02.2016 18:00 0,6 C 86 % 1022,1 hPa 0,0 l/m 0,0 km/h O-SO -1,5 C 0,6 C 0,0 km/h
19.02.2016 19:00 0,8 C 88 % 1022,5 hPa 0,0 l/m 0,0 km/h O-SO -1,0 C 0,8 C 0,0 km/h
19.02.2016 20:00 0,8 C 88 % 1022,6 hPa 0,0 l/m 0,0 km/h O-SO -1,0 C 0,8 C 0,0 km/h
19.02.2016 21:00 0,7 C 88 % 1022,9 hPa 0,0 l/m 0,0 km/h O-NO -1,1 C 0,7 C 0,0 km/h
19.02.2016 22:00 0,5 C 88 % 1022,7 hPa 0,0 l/m 0,0 km/h S-SO -1,3 C 0,5 C 0,0 km/h
19.02.2016 23:00 2,1 C 86 % 1022,7 hPa 0,0 l/m 0,0 km/h S-SW 0,0 C 2,1 C 0,0 km/h
20.02.2016 00:00 2,9 C 83 % 1022,5 hPa 0,0 l/m 3,2 km/h S-SW 0,3 C 2,9 C 1,8 km/h
20.02.2016 01:00 1,8 C 82 % 1022,9 hPa 0,0 l/m 0,0 km/h S-SW -0,9 C 1,8 C 0,0 km/h
20.02.2016 02:00 1,9 C 82 % 1022,3 hPa 0,0 l/m 1,9 km/h S -0,8 C 1,9 C 1,1 km/h
20.02.2016 03:00 2,4 C 81 % 1021,9 hPa 0,0 l/m 1,9 km/h SW -0,5 C 2,4 C 1,1 km/h
20.02.2016 04:00 3,3 C 79 % 1021,6 hPa 0,0 l/m 7,1 km/h W 0,0 C 2,6 C 4,0 km/h
20.02.2016 05:00 4,4 C 74 % 1021,2 hPa 0,0 l/m 14,3 km/h W-SW 0,2 C -1,3 C 7,9 km/h
20.02.2016 06:00 4,6 C 75 % 1021,1 hPa 0,0 l/m 14,9 km/h W-SW 0,6 C -1,4 C 8,3 km/h
20.02.2016 07:00 3,9 C 79 % 1021,0 hPa 0,0 l/m 16,2 km/h S-SW 0,6 C -2,9 C 9,0 km/h
20.02.2016 08:00 3,2 C 86 % 1021,0 hPa 0,4 l/m 16,2 km/h W 1,1 C -3,7 C 9,0 km/h
20.02.2016 09:00 5,1 C 83 % 1020,5 hPa 0,0 l/m 8,4 km/h W-SW 2,5 C 3,4 C 4,7 km/h
20.02.2016 10:00 5,5 C 77 % 1020,0 hPa 0,0 l/m 20,1 km/h W 1,8 C -2,6 C 11,2 km/h
20.02.2016 11:00 5,3 C 79 % 1019,7 hPa 0,4 l/m 24,6 km/h W-SW 2,0 C -4,4 C 13,7 km/h
20.02.2016 12:00 6,1 C 78 % 1019,3 hPa 0,0 l/m 31,1 km/h SW 2,6 C -5,1 C 17,3 km/h
20.02.2016 13:00 6,6 C 79 % 1018,8 hPa 0,0 l/m 42,8 km/h W-SW 3,2 C -6,6 C 23,8 km/h
20.02.2016 14:00 6,2 C 84 % 1018,6 hPa 0,0 l/m 21,4 km/h W 3,7 C -2,1 C 11,9 km/h
20.02.2016 15:00 7,2 C 84 % 1018,2 hPa 0,0 l/m 31,8 km/h W 4,7 C -3,7 C 17,6 km/h
20.02.2016 16:00 7,6 C 85 % 1018,7 hPa 0,0 l/m 20,1 km/h W 5,2 C 0,2 C 11,2 km/h
20.02.2016 17:00 7,8 C 85 % 1018,6 hPa 0,0 l/m 25,3 km/h W-SW 5,4 C -1,2 C 14,0 km/h
20.02.2016 18:00 8,2 C 85 % 1018,8 hPa 0,0 l/m 26,6 km/h SW 5,8 C -1,0 C 14,8 km/h
20.02.2016 19:00 8,1 C 86 % 1018,8 hPa 0,0 l/m 31,8 km/h W-SW 5,9 C -2,4 C 17,6 km/h
20.02.2016 20:00 8,7 C 86 % 1018,7 hPa 0,0 l/m 35,0 km/h W 6,5 C -2,2 C 19,4 km/h
20.02.2016 21:00 8,9 C 85 % 1018,6 hPa 0,0 l/m 35,0 km/h W 6,5 C -1,9 C 19,4 km/h
20.02.2016 22:00 8,9 C 86 % 1018,6 hPa 0,0 l/m 20,1 km/h W-SW 6,7 C 1,8 C 11,2 km/h
20.02.2016 23:00 9,6 C 85 % 1018,4 hPa 0,4 l/m 23,3 km/h W 7,2 C 1,8 C 13,0 km/h
21.02.2016 00:00 10,2 C 82 % 1018,6 hPa 0,0 l/m 37,6 km/h W-SW 7,3 C -0,4 C 20,9 km/h
21.02.2016 01:00 10,5 C 81 % 1019,3 hPa 0,0 l/m 20,1 km/h SW 7,4 C 3,9 C 11,2 km/h
21.02.2016 02:00 10,6 C 81 % 1019,0 hPa 0,0 l/m 27,2 km/h SW 7,5 C 2,1 C 15,1 km/h
21.02.2016 03:00 10,8 C 78 % 1019,1 hPa 0,0 l/m 34,3 km/h W 7,1 C 1,0 C 19,1 km/h
21.02.2016 04:00 10,4 C 80 % 1019,2 hPa 0,0 l/m 34,3 km/h SW 7,1 C 0,4 C 19,1 km/h
21.02.2016 05:00 10,6 C 81 % 1019,3 hPa 0,0 l/m 21,4 km/h W-NW 7,5 C 3,6 C 11,9 km/h
21.02.2016 06:00 10,8 C 80 % 1019,3 hPa 0,0 l/m 20,7 km/h SW 7,5 C 4,1 C 11,5 km/h
21.02.2016 07:00 10,6 C 82 % 1020,0 hPa 0,0 l/m 42,1 km/h W 7,7 C -0,5 C 23,4 km/h
21.02.2016 08:00 11,0 C 81 % 1020,2 hPa 0,0 l/m 21,4 km/h W 7,9 C 4,2 C 11,9 km/h
21.02.2016 09:00 11,6 C 80 % 1020,6 hPa 0,0 l/m 20,1 km/h W-SW 8,3 C 5,3 C 11,2 km/h
21.02.2016 10:00 12,3 C 79 % 1020,5 hPa 0,0 l/m 27,9 km/h SW 8,8 C 4,3 C 15,5 km/h
21.02.2016 11:00 12,1 C 78 % 1020,2 hPa 0,0 l/m 23,3 km/h W 8,4 C 5,1 C 13,0 km/h
21.02.2016 12:00 12,4 C 78 % 1019,7 hPa 0,0 l/m 17,5 km/h W-SW 8,7 C 7,2 C 9,7 km/h
21.02.2016 13:00 13,1 C 75 % 1019,3 hPa 0,0 l/m 38,2 km/h W 8,8 C 3,7 C 21,2 km/h
21.02.2016 14:00 12,6 C 75 % 1019,0 hPa 0,0 l/m 20,7 km/h W-NW 8,3 C 6,4 C 11,5 km/h
21.02.2016 15:00 15,2 C 69 % 1018,6 hPa 0,0 l/m 28,5 km/h W-NW 9,6 C 8,2 C 15,8 km/h
21.02.2016 16:00 12,9 C 73 % 1018,1 hPa 0,0 l/m 8,4 km/h W 8,2 C 11,7 C 4,7 km/h
21.02.2016 17:00 14,4 C 68 % 1017,7 hPa 0,0 l/m 5,8 km/h W-SW 8,6 C 14,4 C 3,2 km/h
21.02.2016 18:00 11,8 C 76 % 1016,5 hPa 0,0 l/m 9,1 km/h SW 7,7 C 10,1 C 5,0 km/h
21.02.2016 19:00 11,2 C 77 % 1016,3 hPa 0,0 l/m 6,5 km/h S-SO 7,3 C 11,2 C 3,6 km/h
21.02.2016 20:00 9,4 C 81 % 1016,1 hPa 0,0 l/m 0,0 km/h S-SW 6,3 C 9,4 C 0,0 km/h
21.02.2016 21:00 11,6 C 80 % 1016,2 hPa 0,0 l/m 14,3 km/h W 8,3 C 7,4 C 7,9 km/h
21.02.2016 22:00 11,4 C 78 % 1016,0 hPa 0,0 l/m 0,0 km/h W-NW 7,7 C 11,4 C 0,0 km/h
21.02.2016 23:00 9,8 C 81 % 1015,3 hPa 0,0 l/m 0,0 km/h W-NW 6,7 C 9,8 C 0,0 km/h
Min-Datum _ 17.02.16 18.02.16 15.02.16 - 15.02.16 - 17.02.16 20.02.16 15.02.16
_ Min-Zeit 07:42 14:42 00:42 - 00:42 - 07:42 13:42 00:42
Minimum _ 0,2 C 56 % 997,7 hPa - 0,0 km/h - -1,7 C -6,6 C 0,0 km/h
Max-Datum _ 21.02.16 15.02.16 16.02.16 15.02.16 20.02.16 - 21.02.16 21.02.16 20.02.16
_ Max-Zeit 15:42 09:42 11:42 07:42 13:42 - 15:42 17:42 13:42
Maximum _ 15,2 C 89 % 1028,3 hPa 1,2 l/m 42,8 km/h
W-SW
- 9,6 C 14,4 C 23,8 km/h
W-SW
Durchschnitt _ 4,8 C 82 % 1017,7 hPa #6,6 l/m 6,7 km/h NO 2,0 C 2,8 C 3,7 km/h
www.sexauwetter.de